Terminal Aerodrome Forecast
Issued by NWS

Home | Current Version | Previous Version | Graphics & Text | Print | Product List | Glossary On
Versions: 1 2 3 4 5 6 7 8 9 10 11 12 13 14 15 16 17 18 19
367
FTUS43 KGRB 050218 AAA
TAFAUW
TAF AMD
KAUW 050218Z 0502/0524 20005KT 6SM -SN BKN024
      TEMPO 0502/0504 3SM -SN BR
     FM050400 28005KT P6SM SCT012 BKN020
     FM051000 31005KT P6SM SCT025
     FM051600 25006KT P6SM SCT030 BKN120=

USA.gov is the U.S. government's official web portal to all federal, state and local government web resources and services.